Terminal Aerodrome Forecast
Issued by NWS Paducah, KY

Home | Current Version | Previous Version | Text Only | Print | Product List | Glossary On
Versions: 1 2 3 4 5 6 7 8 9 10 11 12 13 14 15 16 17
143
FTUS43 KPAH 091120
TAFEVV
TAF
KEVV 091120Z 0912/1012 23009KT P6SM SCT025 OVC070
      TEMPO 0912/0916 29009G15KT -SN BKN025
     FM091600 30012G22KT P6SM BKN025
     FM092100 32013G23KT P6SM BKN035
     FM100000 31006KT P6SM BKN035
     FM100300 30005KT P6SM SKC
     FM100600 26003KT P6SM SKC=

USA.gov is the U.S. government's official web portal to all federal, state and local government web resources and services.